createdAt,value
2023-04-17T00:01:38.106Z,1.77
2023-04-17T00:04:05.589Z,2.08
2023-04-17T00:06:33.829Z,3.13
2023-04-17T00:09:00.512Z,2.10
2023-04-17T00:11:27.065Z,2.97
2023-04-17T00:13:53.597Z,1.65
2023-04-17T00:16:20.186Z,1.73
2023-04-17T00:18:46.696Z,2.10
2023-04-17T00:21:13.227Z,2.13
2023-04-17T00:23:39.779Z,2.30
2023-04-17T00:26:06.396Z,2.45
2023-04-17T00:28:33.145Z,2.17
2023-04-17T00:30:59.737Z,4.15
2023-04-17T00:33:26.268Z,2.75
2023-04-17T00:35:53.221Z,2.13
2023-04-17T00:38:19.798Z,1.20
2023-04-17T00:40:46.451Z,2.70
2023-04-17T00:43:13.108Z,3.92
2023-04-17T00:45:39.820Z,2.95
2023-04-17T00:48:07.566Z,2.50
2023-04-17T00:50:34.901Z,2.92
2023-04-17T00:53:01.675Z,2.42
2023-04-17T00:55:29.067Z,2.35
2023-04-17T00:57:56.773Z,3.97
2023-04-17T01:00:23.386Z,2.60
2023-04-17T01:02:50.282Z,2.70
2023-04-17T01:05:17.521Z,1.88
2023-04-17T01:07:45.535Z,2.65
2023-04-17T01:10:12.198Z,2.40
2023-04-17T01:12:38.802Z,2.90
2023-04-17T01:15:06.479Z,4.75
2023-04-17T01:17:33.202Z,2.75
2023-04-17T01:19:59.840Z,4.90
2023-04-17T01:22:26.541Z,2.80
2023-04-17T01:24:57.055Z,2.50
2023-04-17T01:27:26.976Z,3.00
2023-04-17T01:29:54.679Z,2.58
2023-04-17T01:32:21.439Z,2.75
2023-04-17T01:34:48.014Z,2.15
2023-04-17T01:37:14.572Z,2.42
2023-04-17T01:39:41.172Z,2.22
2023-04-17T01:42:07.786Z,2.20
2023-04-17T01:44:34.444Z,2.85
2023-04-17T01:47:01.072Z,1.73
2023-04-17T01:49:27.901Z,1.67
2023-04-17T01:51:54.548Z,2.78
2023-04-17T01:54:21.208Z,1.75
2023-04-17T01:56:47.920Z,3.00
2023-04-17T01:59:14.583Z,2.47
2023-04-17T02:01:41.396Z,2.90
2023-04-17T02:04:08.049Z,2.13
2023-04-17T02:06:34.901Z,2.58
2023-04-17T02:09:01.602Z,2.60
2023-04-17T02:11:28.083Z,2.58
2023-04-17T02:13:54.663Z,2.88
2023-04-17T02:16:22.655Z,2.85
2023-04-17T02:18:50.707Z,2.42
2023-04-17T02:21:17.407Z,2.50
2023-04-17T02:23:44.362Z,2.10
2023-04-17T02:26:11.041Z,3.00
2023-04-17T02:28:37.709Z,3.67
2023-04-17T02:31:08.542Z,2.67
2023-04-17T02:33:39.004Z,3.10
2023-04-17T02:36:06.364Z,3.03
2023-04-17T02:38:41.948Z,2.45
2023-04-17T02:41:08.510Z,2.50
2023-04-17T02:43:35.199Z,2.17
2023-04-17T02:46:01.939Z,3.15
2023-04-17T02:48:28.639Z,2.75
2023-04-17T02:50:55.608Z,3.40
2023-04-17T02:53:22.728Z,1.98
2023-04-17T02:55:49.804Z,2.75
2023-04-17T02:58:19.174Z,2.70
2023-04-17T03:00:46.048Z,2.63
2023-04-17T03:03:16.176Z,2.50
2023-04-17T03:05:42.976Z,2.45
2023-04-17T03:08:09.686Z,1.92
2023-04-17T03:10:44.078Z,1.55
2023-04-17T03:13:10.673Z,2.03
2023-04-17T03:15:37.201Z,2.10
2023-04-17T03:18:03.884Z,2.63
2023-04-17T03:20:30.460Z,2.80
2023-04-17T03:22:56.990Z,3.60
2023-04-17T03:25:23.542Z,2.25
2023-04-17T03:27:53.476Z,1.80
2023-04-17T03:30:24.256Z,2.38
2023-04-17T03:32:52.379Z,2.38
2023-04-17T03:35:18.911Z,1.77
2023-04-17T03:37:45.544Z,2.58
2023-04-17T03:40:13.225Z,1.92
2023-04-17T03:42:39.884Z,3.53
2023-04-17T03:45:07.153Z,2.40
2023-04-17T03:47:33.858Z,2.67
2023-04-17T03:50:00.661Z,2.20
2023-04-17T03:52:31.858Z,2.17
2023-04-17T03:54:59.038Z,2.38
2023-04-17T03:57:26.592Z,3.00
2023-04-17T03:59:53.480Z,1.95
2023-04-17T04:02:20.983Z,2.15
2023-04-17T04:04:50.389Z,2.25
2023-04-17T04:07:17.188Z,2.08
2023-04-17T04:09:44.641Z,2.78
2023-04-17T04:12:11.694Z,2.28
2023-04-17T04:14:44.394Z,2.42
2023-04-17T04:17:11.557Z,2.10
2023-04-17T04:19:39.108Z,2.10
2023-04-17T04:22:06.944Z,2.63
2023-04-17T04:24:43.467Z,2.63
2023-04-17T04:27:13.014Z,2.85
2023-04-17T04:29:39.744Z,2.38
2023-04-17T04:32:09.844Z,2.75
2023-04-17T04:34:42.149Z,2.25
2023-04-17T04:37:09.262Z,2.50
2023-04-17T04:39:39.472Z,1.90
2023-04-17T04:42:09.855Z,2.47
2023-04-17T04:45:09.658Z,1.88
2023-04-17T04:47:36.544Z,1.38
2023-04-17T04:50:03.444Z,2.38
2023-04-17T04:52:31.001Z,4.47
2023-04-17T04:55:01.744Z,2.25
2023-04-17T04:57:30.199Z,2.38
2023-04-17T05:00:00.196Z,3.33
2023-04-17T05:02:32.494Z,2.92
2023-04-17T05:05:00.403Z,2.97
2023-04-17T05:07:27.614Z,3.67
2023-04-17T05:09:55.018Z,2.47
2023-04-17T05:12:21.830Z,2.50
2023-04-17T05:14:49.086Z,3.40
2023-04-17T05:17:18.326Z,2.65
2023-04-17T05:19:44.945Z,3.90
2023-04-17T05:22:11.509Z,2.65
2023-04-17T05:24:49.520Z,2.80
2023-04-17T05:27:17.149Z,3.53
2023-04-17T05:29:44.686Z,2.70
2023-04-17T05:32:11.558Z,3.30
2023-04-17T05:34:49.789Z,2.42
2023-04-17T05:37:19.657Z,3.50
2023-04-17T05:39:46.242Z,3.42
2023-04-17T05:42:12.823Z,2.67
2023-04-17T05:44:39.871Z,3.97
2023-04-17T05:47:07.662Z,3.80
2023-04-17T05:49:34.178Z,3.58
2023-04-17T05:52:00.840Z,4.85
2023-04-17T05:54:30.094Z,4.45
2023-04-17T05:56:57.710Z,5.78
2023-04-17T05:59:25.232Z,5.15
2023-04-17T06:01:52.420Z,5.28
2023-04-17T06:04:21.928Z,4.60
2023-04-17T06:06:49.941Z,5.85
2023-04-17T06:09:16.780Z,5.05
2023-04-17T06:11:43.486Z,5.35
2023-04-17T06:14:10.045Z,5.63
2023-04-17T06:16:37.962Z,5.00
2023-04-17T06:19:04.501Z,5.07
2023-04-17T06:21:31.939Z,5.47
2023-04-17T06:24:00.503Z,5.88
2023-04-17T06:26:27.088Z,6.15
2023-04-17T06:28:54.728Z,7.30
2023-04-17T06:31:23.071Z,5.13
2023-04-17T06:33:50.873Z,3.28
2023-04-17T06:36:20.683Z,4.22
2023-04-17T06:38:49.632Z,4.35
2023-04-17T06:43:45.426Z,4.70
2023-04-17T06:46:14.140Z,7.00
2023-04-17T06:48:40.776Z,4.75
2023-04-17T06:51:07.309Z,7.18
2023-04-17T06:53:33.891Z,4.93
2023-04-17T06:56:00.409Z,5.10
2023-04-17T06:58:27.040Z,4.68
2023-04-17T07:00:53.589Z,4.95
2023-04-17T07:03:20.373Z,5.63
2023-04-17T07:05:47.101Z,4.43
2023-04-17T07:08:15.747Z,4.10
2023-04-17T07:10:42.307Z,4.95
2023-04-17T07:13:08.830Z,4.80
2023-04-17T07:15:35.464Z,4.82
2023-04-17T07:18:02.107Z,5.32
2023-04-17T07:20:28.836Z,4.05
2023-04-17T07:22:56.747Z,3.70
2023-04-17T07:25:23.537Z,4.07
2023-04-17T07:27:50.144Z,3.65
2023-04-17T07:30:16.807Z,4.65
2023-04-17T07:32:43.354Z,5.20
2023-04-17T07:35:10.167Z,5.95
2023-04-17T07:37:37.176Z,5.35
2023-04-17T07:40:05.644Z,3.67
2023-04-17T07:42:32.163Z,4.25
2023-04-17T07:44:58.688Z,4.97
2023-04-17T07:47:25.303Z,4.65
2023-04-17T07:49:51.990Z,5.22
2023-04-17T07:52:18.569Z,4.18
2023-04-17T07:54:45.572Z,3.90
2023-04-17T07:57:12.352Z,4.90
2023-04-17T07:59:38.952Z,3.13
2023-04-17T08:02:05.853Z,5.47
2023-04-17T08:04:33.440Z,7.45
2023-04-17T08:07:00.162Z,3.85
2023-04-17T08:09:26.796Z,3.88
2023-04-17T08:11:57.728Z,4.28
2023-04-17T08:14:25.585Z,4.65
2023-04-17T08:16:52.393Z,2.92
2023-04-17T08:19:19.163Z,3.72
2023-04-17T08:21:49.046Z,3.58
2023-04-17T08:24:18.658Z,3.13
2023-04-17T08:26:46.174Z,3.45
2023-04-17T08:29:13.823Z,4.80
2023-04-17T08:31:40.561Z,4.10
2023-04-17T08:34:14.568Z,4.10
2023-04-17T08:36:42.623Z,3.90
2023-04-17T08:39:11.116Z,4.82
2023-04-17T08:41:54.108Z,5.00
2023-04-17T08:44:23.729Z,6.22
2023-04-17T08:46:50.825Z,3.95
2023-04-17T08:49:17.358Z,5.57
2023-04-17T08:51:43.965Z,4.18
2023-04-17T08:54:10.609Z,3.28
2023-04-17T08:56:37.219Z,3.40
2023-04-17T08:59:04.552Z,4.72
2023-04-17T09:01:31.228Z,3.58
2023-04-17T09:03:58.231Z,3.72
2023-04-17T09:06:24.975Z,3.97
2023-04-17T09:08:59.339Z,4.35
2023-04-17T09:11:26.560Z,11.32
2023-04-17T09:13:53.580Z,5.97
2023-04-17T09:16:20.656Z,3.70
2023-04-17T09:18:47.704Z,3.58
2023-04-17T09:21:16.730Z,3.83
2023-04-17T09:23:49.515Z,2.97
2023-04-17T09:26:18.399Z,3.88
2023-04-17T09:29:12.850Z,3.20
2023-04-17T09:31:42.086Z,3.13
2023-04-17T09:34:12.966Z,3.90
2023-04-17T09:36:41.610Z,5.63
2023-04-17T09:39:24.348Z,3.60
2023-04-17T09:42:03.209Z,3.55
2023-04-17T09:44:30.228Z,3.28
2023-04-17T09:46:57.160Z,3.92
2023-04-17T09:49:36.386Z,4.15
2023-04-17T09:52:03.935Z,4.28
2023-04-17T09:54:37.699Z,5.72
2023-04-17T09:57:08.140Z,4.53
2023-04-17T09:59:40.779Z,4.32
2023-04-17T10:02:09.342Z,4.80
2023-04-17T10:04:36.764Z,6.53
2023-04-17T10:07:04.489Z,3.88
2023-04-17T10:09:31.148Z,4.22
2023-04-17T10:11:58.489Z,2.72
2023-04-17T10:14:27.552Z,4.85
2023-04-17T10:16:54.803Z,4.55
2023-04-17T10:19:31.917Z,3.25
2023-04-17T10:22:19.697Z,3.45
2023-04-17T10:24:47.800Z,2.60
2023-04-17T10:27:26.254Z,3.85
2023-04-17T10:29:57.358Z,3.13
2023-04-17T10:32:26.295Z,4.28
2023-04-17T10:34:54.618Z,3.47
2023-04-17T10:37:23.254Z,3.22
2023-04-17T10:39:56.701Z,2.60
2023-04-17T10:42:23.959Z,2.28
2023-04-17T10:44:51.847Z,3.08
2023-04-17T10:47:22.090Z,2.80
2023-04-17T10:49:54.288Z,3.25
2023-04-17T10:52:38.685Z,3.53
2023-04-17T10:55:16.117Z,4.10
2023-04-17T10:57:58.056Z,4.32
2023-04-17T11:00:31.200Z,1.67
2023-04-17T11:02:58.546Z,3.33
2023-04-17T11:05:25.206Z,3.58
2023-04-17T11:07:52.246Z,4.00
2023-04-17T11:10:20.173Z,4.05
2023-04-17T11:12:53.096Z,3.00
2023-04-17T11:15:27.735Z,3.47
2023-04-17T11:17:55.099Z,4.20
2023-04-17T11:20:23.223Z,4.07
2023-04-17T11:22:49.723Z,3.88
2023-04-17T11:25:21.078Z,4.30
2023-04-17T11:27:50.799Z,4.03
2023-04-17T11:30:31.480Z,4.38
2023-04-17T11:33:02.105Z,4.30
2023-04-17T11:35:36.429Z,1.80
2023-04-17T11:38:06.004Z,2.97
2023-04-17T11:40:32.783Z,3.83
2023-04-17T11:43:09.150Z,3.00
2023-04-17T11:45:36.182Z,5.25
2023-04-17T11:48:03.660Z,5.28
2023-04-17T11:50:31.283Z,4.95
2023-04-17T11:53:00.497Z,4.75
2023-04-17T11:55:31.126Z,4.10
2023-04-17T11:57:58.483Z,6.57
2023-04-17T12:00:29.649Z,5.18
2023-04-17T12:02:57.994Z,3.80
2023-04-17T12:05:26.547Z,4.13
2023-04-17T12:08:04.317Z,4.78
2023-04-17T12:10:39.128Z,3.45
2023-04-17T12:13:05.777Z,4.55
2023-04-17T12:15:33.663Z,5.15
2023-04-17T12:18:00.259Z,5.43
2023-04-17T12:20:26.990Z,3.67
2023-04-17T12:22:53.563Z,4.40
2023-04-17T12:25:20.091Z,4.30
2023-04-17T12:27:48.815Z,4.93
2023-04-17T12:30:16.366Z,3.85
2023-04-17T12:32:48.428Z,4.30
2023-04-17T12:35:22.259Z,3.58
2023-04-17T12:37:51.186Z,4.78
2023-04-17T12:40:19.181Z,6.60
2023-04-17T12:42:49.600Z,5.40
2023-04-17T12:45:16.966Z,5.65
2023-04-17T12:47:43.614Z,5.97
2023-04-17T12:50:11.785Z,5.97
2023-04-17T12:52:39.158Z,5.28
2023-04-17T12:55:07.455Z,5.15
2023-04-17T12:57:37.458Z,5.40
2023-04-17T13:00:09.318Z,6.75
2023-04-17T13:02:36.365Z,6.88
2023-04-17T13:05:04.125Z,6.88
2023-04-17T13:07:30.748Z,4.95
2023-04-17T13:09:57.408Z,8.13
2023-04-17T13:12:24.139Z,5.00
2023-04-17T13:14:50.761Z,5.85
2023-04-17T13:17:17.747Z,8.07
2023-04-17T13:19:44.529Z,4.55
2023-04-17T13:22:11.107Z,5.07
2023-04-17T13:24:37.803Z,4.50
2023-04-17T13:27:04.624Z,5.22
2023-04-17T13:29:31.371Z,3.53
2023-04-17T13:31:57.959Z,6.93
2023-04-17T13:34:24.518Z,5.05
2023-04-17T13:36:51.057Z,5.25
2023-04-17T13:39:17.718Z,4.35
2023-04-17T13:41:44.282Z,4.53
2023-04-17T13:44:10.884Z,5.10
2023-04-17T13:46:37.463Z,6.90
2023-04-17T13:49:04.088Z,5.57
2023-04-17T13:51:31.615Z,6.55
2023-04-17T13:54:00.890Z,4.65
2023-04-17T13:56:27.994Z,4.32
2023-04-17T13:58:55.488Z,5.32
2023-04-17T14:01:22.131Z,5.90
2023-04-17T14:03:48.882Z,4.40
2023-04-17T14:06:17.764Z,4.45
2023-04-17T14:08:45.483Z,3.92
2023-04-17T14:11:12.862Z,6.82
2023-04-17T14:13:39.441Z,4.25
2023-04-17T14:16:06.613Z,5.28
2023-04-17T14:18:33.276Z,3.65
2023-04-17T14:20:59.892Z,4.75
2023-04-17T14:23:26.506Z,2.58
2023-04-17T14:25:53.150Z,3.75
2023-04-17T14:28:20.907Z,3.70
2023-04-17T14:30:48.179Z,3.42
2023-04-17T14:33:14.911Z,3.47
2023-04-17T14:35:41.424Z,3.45
2023-04-17T14:38:08.383Z,4.28
2023-04-17T14:40:34.888Z,3.55
2023-04-17T14:43:01.440Z,4.38
2023-04-17T14:45:28.054Z,4.25
2023-04-17T14:47:54.654Z,4.55
2023-04-17T14:50:21.265Z,4.18
2023-04-17T14:52:47.845Z,4.30
2023-04-17T14:55:14.336Z,6.15
2023-04-17T14:57:40.907Z,5.95
2023-04-17T15:00:08.514Z,5.30
2023-04-17T15:02:38.382Z,4.13
2023-04-17T15:05:06.444Z,3.63
2023-04-17T15:07:33.024Z,2.38
2023-04-17T15:09:59.559Z,4.90
2023-04-17T15:12:26.279Z,3.97
2023-04-17T15:14:53.043Z,4.03
2023-04-17T15:17:19.811Z,3.28
2023-04-17T15:19:46.435Z,1.55
2023-04-17T15:22:12.953Z,4.00
2023-04-17T15:24:39.468Z,2.80
2023-04-17T15:27:06.000Z,3.47
2023-04-17T15:29:32.550Z,3.72
2023-04-17T15:32:00.621Z,3.28
2023-04-17T15:34:27.250Z,3.47
2023-04-17T15:36:53.751Z,3.67
2023-04-17T15:39:20.259Z,2.90
2023-04-17T15:41:46.794Z,3.08
2023-04-17T15:44:13.329Z,3.75
2023-04-17T15:46:39.890Z,3.78
2023-04-17T15:49:09.093Z,3.45
2023-04-17T15:51:36.000Z,2.80
2023-04-17T15:54:02.648Z,1.77
2023-04-17T15:56:29.184Z,3.83
2023-04-17T15:58:55.666Z,2.78
2023-04-17T16:01:22.265Z,3.17
2023-04-17T16:03:48.921Z,3.00
2023-04-17T16:06:15.622Z,2.22
2023-04-17T16:08:42.114Z,1.48
2023-04-17T16:11:08.908Z,3.83
2023-04-17T16:13:35.447Z,2.25
2023-04-17T16:16:02.022Z,2.30
2023-04-17T16:18:28.558Z,2.17
2023-04-17T16:20:55.178Z,2.03
2023-04-17T16:23:22.055Z,2.70
2023-04-17T16:25:50.163Z,2.65
2023-04-17T16:28:16.859Z,2.67
2023-04-17T16:30:43.442Z,3.92
2023-04-17T16:33:09.956Z,1.88
2023-04-17T16:35:36.441Z,3.47
2023-04-17T16:38:02.978Z,2.00
2023-04-17T16:40:30.861Z,2.00
2023-04-17T16:42:57.418Z,4.10
2023-04-17T16:45:23.926Z,1.88
2023-04-17T16:47:50.769Z,1.98
2023-04-17T16:50:17.392Z,1.77
2023-04-17T16:52:43.892Z,3.60
2023-04-17T16:55:10.535Z,1.88
2023-04-17T16:57:38.213Z,2.05
2023-04-17T17:00:06.200Z,2.97
2023-04-17T17:02:32.813Z,1.92
2023-04-17T17:04:59.443Z,2.30
2023-04-17T17:07:26.134Z,2.58
2023-04-17T17:09:52.680Z,2.70
2023-04-17T17:12:19.144Z,4.57
2023-04-17T17:14:45.618Z,1.80
2023-04-17T17:17:12.192Z,3.08
2023-04-17T17:19:38.695Z,2.53
2023-04-17T17:22:05.327Z,1.92
2023-04-17T17:24:31.935Z,2.05
2023-04-17T17:26:58.469Z,2.10
2023-04-17T17:29:25.083Z,4.50
2023-04-17T17:31:51.683Z,3.25
2023-04-17T17:34:26.214Z,3.13
2023-04-17T17:36:53.878Z,2.97
2023-04-17T17:39:21.669Z,2.85
2023-04-17T17:41:48.504Z,4.53
2023-04-17T17:44:15.480Z,2.70
2023-04-17T17:46:42.333Z,5.40
2023-04-17T17:49:08.890Z,2.75
2023-04-17T17:51:35.466Z,4.03
2023-04-17T17:54:01.947Z,2.33
2023-04-17T17:56:28.862Z,3.15
2023-04-17T17:58:55.632Z,4.25
2023-04-17T18:01:24.593Z,2.97
2023-04-17T18:03:51.431Z,2.67
2023-04-17T18:06:18.135Z,3.22
2023-04-17T18:08:44.721Z,2.75
2023-04-17T18:11:13.189Z,3.63
2023-04-17T18:13:39.664Z,4.53
2023-04-17T18:16:07.407Z,2.88
2023-04-17T18:18:33.944Z,2.95
2023-04-17T18:21:00.754Z,2.47
2023-04-17T18:23:27.229Z,2.80
2023-04-17T18:26:01.529Z,2.45
2023-04-17T18:28:28.279Z,2.90
2023-04-17T18:30:54.876Z,2.70
2023-04-17T18:33:21.446Z,2.17
2023-04-17T18:35:48.126Z,2.95
2023-04-17T18:38:14.806Z,2.00
2023-04-17T18:40:41.341Z,3.78
2023-04-17T18:43:09.906Z,2.15
2023-04-17T18:45:36.924Z,2.45
2023-04-17T18:48:03.663Z,2.63
2023-04-17T18:50:30.528Z,2.17
2023-04-17T18:52:57.094Z,2.83
2023-04-17T18:55:23.801Z,2.80
2023-04-17T18:57:50.487Z,2.45
2023-04-17T19:00:17.220Z,4.15
2023-04-17T19:02:43.952Z,2.20
2023-04-17T19:05:10.657Z,2.53
2023-04-17T19:07:37.218Z,3.05
2023-04-17T19:10:04.302Z,3.20
2023-04-17T19:12:31.042Z,2.75
2023-04-17T19:14:57.555Z,2.95
2023-04-17T19:17:25.384Z,2.83
2023-04-17T19:19:51.994Z,2.60
2023-04-17T19:22:18.613Z,2.88
2023-04-17T19:24:49.540Z,2.30
2023-04-17T19:27:16.758Z,3.40
2023-04-17T19:29:43.450Z,3.80
2023-04-17T19:32:10.728Z,3.17
2023-04-17T19:34:37.429Z,3.22
2023-04-17T19:37:04.168Z,1.85
2023-04-17T19:39:31.185Z,2.65
2023-04-17T19:41:58.027Z,2.65
2023-04-17T19:44:27.329Z,2.55
2023-04-17T19:46:55.196Z,2.85
2023-04-17T19:49:21.728Z,3.30
2023-04-17T19:51:48.326Z,2.85
2023-04-17T19:54:15.779Z,2.38
2023-04-17T19:56:42.361Z,2.55
2023-04-17T19:59:12.313Z,2.40
2023-04-17T20:01:40.925Z,3.65
2023-04-17T20:04:08.947Z,2.25
2023-04-17T20:06:35.994Z,2.65
2023-04-17T20:09:03.579Z,1.73
2023-04-17T20:11:30.110Z,2.80
2023-04-17T20:13:56.635Z,2.40
2023-04-17T20:16:24.077Z,2.47
2023-04-17T20:18:51.878Z,1.95
2023-04-17T20:21:18.684Z,2.55
2023-04-17T20:23:45.632Z,1.33
2023-04-17T20:26:12.218Z,2.00
2023-04-17T20:28:38.832Z,2.10
2023-04-17T20:31:05.559Z,2.53
2023-04-17T20:33:32.146Z,1.58
2023-04-17T20:35:58.991Z,2.45
2023-04-17T20:38:25.757Z,2.72
2023-04-17T20:40:52.235Z,2.65
2023-04-17T20:43:18.928Z,2.50
2023-04-17T20:45:45.788Z,2.17
2023-04-17T20:48:12.405Z,1.75
2023-04-17T20:50:39.041Z,2.28
2023-04-17T20:53:05.559Z,2.72
2023-04-17T20:55:32.052Z,1.58
2023-04-17T20:57:58.600Z,2.80
2023-04-17T21:00:25.165Z,2.67
2023-04-17T21:02:51.817Z,1.83
2023-04-17T21:05:19.288Z,2.17
2023-04-17T21:07:45.857Z,2.95
2023-04-17T21:10:12.359Z,2.35
2023-04-17T21:12:38.924Z,2.40
2023-04-17T21:15:05.853Z,1.83
2023-04-17T21:17:32.413Z,1.98
2023-04-17T21:19:59.033Z,1.98
2023-04-17T21:22:25.532Z,3.30
2023-04-17T21:24:52.119Z,2.63
2023-04-17T21:27:18.695Z,1.65
2023-04-17T21:29:45.161Z,1.73
2023-04-17T21:32:11.676Z,2.13
2023-04-17T21:34:38.242Z,2.40
2023-04-17T21:37:05.067Z,2.13
2023-04-17T21:39:33.312Z,1.90
2023-04-17T21:42:00.507Z,3.75
2023-04-17T21:44:27.121Z,2.53
2023-04-17T21:46:53.690Z,2.15
2023-04-17T21:49:20.978Z,3.13
2023-04-17T21:51:47.509Z,2.63
2023-04-17T21:54:14.154Z,2.65
2023-04-17T21:56:41.128Z,1.83
2023-04-17T21:59:07.659Z,3.00
2023-04-17T22:01:34.236Z,2.00
2023-04-17T22:04:00.864Z,2.75
2023-04-17T22:06:27.419Z,2.40
2023-04-17T22:08:54.012Z,2.78
2023-04-17T22:11:21.001Z,2.08
2023-04-17T22:13:47.526Z,2.45
2023-04-17T22:16:14.030Z,1.83
2023-04-17T22:18:40.571Z,3.40
2023-04-17T22:21:07.327Z,2.70
2023-04-17T22:23:33.872Z,2.65
2023-04-17T22:26:00.718Z,3.28
2023-04-17T22:28:31.257Z,2.67
2023-04-17T22:30:58.717Z,1.45
2023-04-17T22:33:26.050Z,2.38
2023-04-17T22:35:52.766Z,2.08
2023-04-17T22:38:20.790Z,2.92
2023-04-17T22:40:54.907Z,2.13
2023-04-17T22:43:21.456Z,2.28
2023-04-17T22:45:48.028Z,2.55
2023-04-17T22:48:14.520Z,1.60
2023-04-17T22:50:41.118Z,2.85
2023-04-17T22:53:07.603Z,2.40
2023-04-17T22:55:34.317Z,2.60
2023-04-17T22:58:02.109Z,2.22
2023-04-17T23:00:30.071Z,1.52
2023-04-17T23:02:56.688Z,2.72
2023-04-17T23:05:23.434Z,2.92
2023-04-17T23:07:50.488Z,2.20
2023-04-17T23:10:17.217Z,2.13
2023-04-17T23:12:43.848Z,2.10
2023-04-17T23:15:10.739Z,2.38
2023-04-17T23:17:37.296Z,1.95
2023-04-17T23:20:04.065Z,2.08
2023-04-17T23:22:30.861Z,1.58
2023-04-17T23:24:57.425Z,1.98
2023-04-17T23:27:24.007Z,1.58
2023-04-17T23:29:50.595Z,2.95
2023-04-17T23:32:17.179Z,2.08
2023-04-17T23:34:43.712Z,1.38
2023-04-17T23:37:10.237Z,2.40
2023-04-17T23:39:36.748Z,2.28
2023-04-17T23:42:07.208Z,2.33
2023-04-17T23:44:34.490Z,2.17
2023-04-17T23:47:01.497Z,1.88
2023-04-17T23:49:28.175Z,2.15
2023-04-17T23:51:54.708Z,2.03
2023-04-17T23:54:21.242Z,2.42
2023-04-17T23:56:47.774Z,2.47
2023-04-17T23:59:14.253Z,1.60
